KFRI/FRI METAR and TAF weather

Enter ICAO airport designator
Station Type Date Time Source
KFRI METAR 2022/11/27 07:55 UTC NOAA

KFRI 270755Z AUTO 36011G16KT 10SM -RA BKN050 06/04 A2967 RMK AO2 SLP048 P0004 T00580036 FZRANO $


Station Type Date Time Source
KFRI Decoded METAR 2022/11/27 07:55 UTC NOAA

Fort Riley, Marshall AAF Ft Riley, KS, United States (KFRI) 39-03-20N 096-45-51W
Nov 27, 2022 - 02:55 AM EST / 2022.11.27 0755 UTC
Wind: from the N (360 degrees) at 13 MPH (11 KT) gusting to 18 MPH (16 KT):0
Visibility: 10 mile(s):0
Sky conditions: mostly cloudy
Weather: light rain
Precipitation last hour: 0.04 inches
Temperature: 42.4 F (5.8 C)
Dew Point: 38.5 F (3.6 C)
Relative Humidity: 85%
Pressure (altimeter): 29.67 in. Hg (1004 hPa)
ob: KFRI 270755Z AUTO 36011G16KT 10SM -RA BKN050 06/04 A2967 RMK AO2 SLP048 P0004 T00580036 FZRANO
cycle: 8

Station Type Date Time Source
KFRI TAF 2022/11/23 18:06 UTC NOAA

TAF TAF
AMD KFRI 231801Z 2318/2418 18010G15KT 9999 FEW200 QNH3004INS
BECMG 2318/2319 18010G20KT 9999 FEW200 QNH2998INS
BECMG 2400/2401 17006KT 5000 BR OVC008 QNH2994INS
BECMG 2403/2404 17006KT 6000 -DZ BR OVC005 QNH2995INS
BECMG 2416/2417 35010G20KT 4800 -DZ BR OVC008 QNH3014INS TX14/2321Z TN07/2413Z LAST NO
AMDS AFT 2320 NEXT 2812

Example: see airport list